Time;durP1;ratioP1;P1;durP2;ratioP2;P2;SDS_P1;SDS_P2;PMS_P1;PMS_P2;Temp;Humidity;BMP_temperature;BMP_pressure;BME280_temperature;BME280_humidity;BME280_pressure;Samples;Min_cycle;Max_cycle;Signal;HPM_P1;HPM_P2
2022/04/05 00:00:04;;;;;;;7.22;1.58;;;;;;;;;;6283266;22;20030;-86
2022/04/05 00:02:31;;;;;;;14.02;1.65;;;;;;;;;;6273828;22;20073;-86
2022/04/05 00:04:59;;;;;;;9.82;1.48;;;;;;;;;;6283334;22;20016;-86
2022/04/05 00:07:28;;;;;;;8.63;1.65;;;;;;;;;;6282686;22;20293;-86
2022/04/05 00:09:55;;;;;;;8.32;1.30;;;;;;;;;;6286252;22;20091;-86
2022/04/05 00:12:23;;;;;;;16.58;1.75;;;;;;;;;;6297889;22;20026;-86
2022/04/05 00:14:52;;;;;;;14.73;1.58;;;;;;;;;;6281127;22;20032;-86
2022/04/05 00:17:19;;;;;;;10.90;1.70;;;;;;;;;;6290435;22;20024;-86
2022/04/05 00:19:47;;;;;;;10.77;1.58;;;;;;;;;;6289480;22;20023;-85
2022/04/05 00:22:15;;;;;;;13.40;2.45;;;;;;;;;;6289758;22;20034;-86
2022/04/05 00:24:43;;;;;;;9.65;1.83;;;;;;;;;;6281875;22;20035;-86
2022/04/05 00:27:11;;;;;;;10.60;1.52;;;;;;;;;;6288166;22;20071;-86
2022/04/05 00:29:39;;;;;;;10.02;1.45;;;;;;;;;;6278087;22;20042;-86
2022/04/05 00:32:09;;;;;;;9.00;1.55;;;;;;;;;;6297846;22;20459;-86
2022/04/05 00:34:36;;;;;;;15.88;1.73;;;;;;;;;;6305053;22;20059;-86
2022/04/05 00:37:03;;;;;;;11.98;1.63;;;;;;;;;;6297260;22;20019;-85
2022/04/05 00:39:31;;;;;;;8.00;1.13;;;;;;;;;;6295856;22;20046;-86
2022/04/05 00:42:00;;;;;;;9.95;1.13;;;;;;;;;;6260968;22;20020;-86
2022/04/05 00:44:28;;;;;;;11.73;1.38;;;;;;;;;;6285720;22;20015;-87
2022/04/05 00:47:00;;;;;;;13.50;1.55;;;;;;;;;;6285808;22;20065;-87
2022/04/05 00:49:32;;;;;;;11.52;2.08;;;;;;;;;;6285101;22;20348;-86
2022/04/05 00:51:59;;;;;;;13.05;1.77;;;;;;;;;;6285067;22;20039;-86
2022/04/05 00:54:28;;;;;;;11.43;1.63;;;;;;;;;;6285352;22;20058;-86
2022/04/05 00:56:57;;;;;;;15.30;1.92;;;;;;;;;;6283208;22;20016;-86
2022/04/05 00:59:28;;;;;;;10.25;1.63;;;;;;;;;;6274645;22;20043;-84
2022/04/05 01:01:56;;;;;;;8.18;1.30;;;;;;;;;;6283225;22;20020;-84
2022/04/05 01:04:25;;;;;;;10.93;1.20;;;;;;;;;;6283378;22;20531;-84
2022/04/05 01:06:54;;;;;;;13.82;1.60;;;;;;;;;;6282665;22;20015;-84
2022/04/05 01:09:23;;;;;;;10.95;1.60;;;;;;;;;;6283284;22;20075;-84
2022/04/05 01:11:49;;;;;;;12.20;2.05;;;;;;;;;;6282657;22;20026;-84
2022/04/05 01:14:17;;;;;;;12.82;1.75;;;;;;;;;;6283807;22;20026;-84
2022/04/05 01:16:46;;;;;;;10.70;1.55;;;;;;;;;;6272647;22;20343;-84
2022/04/05 01:19:13;;;;;;;16.50;1.45;;;;;;;;;;6282160;22;20128;-84
2022/04/05 01:21:41;;;;;;;6.80;1.50;;;;;;;;;;6283501;22;20030;-83
2022/04/05 01:24:14;;;;;;;6.53;1.40;;;;;;;;;;6284270;22;20019;-83
2022/04/05 01:26:46;;;;;;;7.47;1.23;;;;;;;;;;6282713;22;20102;-83
2022/04/05 01:29:15;;;;;;;7.15;1.40;;;;;;;;;;6284118;22;20030;-83
2022/04/05 01:31:47;;;;;;;8.80;1.40;;;;;;;;;;6283367;22;20039;-83
2022/04/05 01:34:18;;;;;;;11.07;1.60;;;;;;;;;;6282729;22;20024;-87
2022/04/05 01:36:49;;;;;;;12.18;1.38;;;;;;;;;;6245941;22;20027;-86
2022/04/05 01:39:20;;;;;;;9.85;1.30;;;;;;;;;;6283498;22;20012;-86
2022/04/05 01:41:56;;;;;;;11.43;1.25;;;;;;;;;;6245637;22;20023;-86
2022/04/05 01:44:25;;;;;;;5.88;1.45;;;;;;;;;;6271948;22;20020;-85
2022/04/05 01:46:53;;;;;;;9.27;1.58;;;;;;;;;;6283888;22;20338;-86
2022/04/05 01:49:22;;;;;;;20.35;2.38;;;;;;;;;;6282737;22;20024;-86
2022/04/05 01:51:50;;;;;;;7.68;1.52;;;;;;;;;;6283082;22;20020;-86
2022/04/05 01:54:18;;;;;;;9.57;1.23;;;;;;;;;;6282637;22;20446;-86
2022/04/05 01:56:51;;;;;;;16.17;2.03;;;;;;;;;;6282358;22;20057;-86
2022/04/05 01:59:32;;;;;;;10.13;1.35;;;;;;;;;;6283446;22;20012;-86
2022/04/05 02:02:04;;;;;;;9.65;1.00;;;;;;;;;;6255668;22;20046;-86
2022/04/05 02:04:32;;;;;;;5.72;2.00;;;;;;;;;;6282994;22;20347;-86
2022/04/05 02:06:59;;;;;;;9.10;1.60;;;;;;;;;;6282774;22;20042;-86
2022/04/05 02:09:27;;;;;;;12.32;1.25;;;;;;;;;;6256226;22;20011;-86
2022/04/05 02:11:55;;;;;;;9.73;1.27;;;;;;;;;;6255900;22;20500;-86
2022/04/05 02:14:43;;;;;;;4.97;0.88;;;;;;;;;;6256580;22;20016;-86
2022/04/05 02:17:17;;;;;;;9.07;1.45;;;;;;;;;;6255701;22;20027;-86
2022/04/05 02:19:47;;;;;;;6.57;1.10;;;;;;;;;;6283691;22;20065;-87
2022/04/05 02:22:18;;;;;;;5.80;1.38;;;;;;;;;;6255495;22;20529;-86
2022/04/05 02:24:51;;;;;;;11.60;1.15;;;;;;;;;;6256757;22;20018;-86
2022/04/05 02:27:25;;;;;;;5.32;1.00;;;;;;;;;;6255792;22;20020;-86
2022/04/05 02:29:53;;;;;;;6.50;1.20;;;;;;;;;;6283233;22;20108;-86
2022/04/05 02:32:23;;;;;;;11.63;2.95;;;;;;;;;;6256285;22;20639;-85
2022/04/05 02:34:51;;;;;;;7.65;0.90;;;;;;;;;;6254602;22;20022;-86
2022/04/05 02:37:19;;;;;;;9.10;1.00;;;;;;;;;;6244701;22;20031;-86
2022/04/05 02:39:52;;;;;;;4.72;0.98;;;;;;;;;;6255899;22;20513;-86
2022/04/05 02:42:19;;;;;;;5.78;1.05;;;;;;;;;;6256365;22;20104;-86
2022/04/05 02:44:47;;;;;;;7.45;1.08;;;;;;;;;;6255649;22;20039;-86
2022/04/05 02:47:15;;;;;;;5.78;0.98;;;;;;;;;;6282742;22;20114;-86
2022/04/05 02:49:49;;;;;;;7.05;0.75;;;;;;;;;;6282380;22;20050;-86
2022/04/05 02:52:21;;;;;;;5.28;0.88;;;;;;;;;;6231661;22;20018;-87
2022/04/05 02:54:55;;;;;;;6.82;1.08;;;;;;;;;;6279157;22;20392;-87
2022/04/05 02:57:25;;;;;;;8.13;1.00;;;;;;;;;;6231205;22;20015;-86
2022/04/05 02:59:56;;;;;;;5.20;0.93;;;;;;;;;;6256442;22;20015;-84
2022/04/05 03:02:23;;;;;;;7.85;1.05;;;;;;;;;;6245624;22;20453;-84
2022/04/05 03:04:51;;;;;;;4.97;0.82;;;;;;;;;;6229232;22;20019;-84
2022/04/05 03:07:20;;;;;;;7.85;1.20;;;;;;;;;;6243078;22;20030;-84
2022/04/05 03:09:47;;;;;;;7.10;0.75;;;;;;;;;;6255026;22;20020;-84
2022/04/05 03:12:18;;;;;;;7.53;0.82;;;;;;;;;;6254856;22;20016;-84
2022/04/05 03:14:49;;;;;;;10.43;1.63;;;;;;;;;;6255705;22;20023;-84
2022/04/05 03:17:20;;;;;;;4.47;0.63;;;;;;;;;;6255409;22;20023;-84
2022/04/05 03:19:48;;;;;;;4.20;0.90;;;;;;;;;;6255263;22;20050;-84
2022/04/05 03:22:18;;;;;;;4.88;0.75;;;;;;;;;;6254691;22;20032;-84
2022/04/05 03:24:46;;;;;;;1.65;0.60;;;;;;;;;;6281855;22;20027;-84
2022/04/05 03:27:13;;;;;;;8.27;1.08;;;;;;;;;;6253123;22;20024;-85
2022/04/05 03:29:42;;;;;;;9.07;0.98;;;;;;;;;;6254742;22;20457;-84
2022/04/05 03:32:11;;;;;;;5.55;1.30;;;;;;;;;;6254694;22;20095;-84
2022/04/05 03:34:39;;;;;;;7.97;0.98;;;;;;;;;;6254699;22;20351;-84
2022/04/05 03:37:08;;;;;;;8.65;1.10;;;;;;;;;;6253442;22;20069;-85
2022/04/05 03:39:35;;;;;;;11.32;1.17;;;;;;;;;;6254504;22;20042;-84
2022/04/05 03:42:04;;;;;;;6.28;0.90;;;;;;;;;;6254707;22;20470;-84
2022/04/05 03:44:31;;;;;;;3.88;0.70;;;;;;;;;;6254820;22;20031;-85
2022/04/05 03:47:01;;;;;;;6.40;1.05;;;;;;;;;;6245058;22;20026;-84
2022/04/05 03:49:31;;;;;;;9.82;1.10;;;;;;;;;;6251271;22;20019;-85
2022/04/05 03:51:59;;;;;;;6.22;0.90;;;;;;;;;;6269528;22;20031;-85
2022/04/05 03:54:27;;;;;;;6.95;1.00;;;;;;;;;;6295123;22;20026;-86
2022/04/05 03:57:02;;;;;;;6.10;0.90;;;;;;;;;;6269403;22;20015;-86
2022/04/05 03:59:31;;;;;;;1.70;0.52;;;;;;;;;;6246474;22;20023;-85
2022/04/05 04:01:59;;;;;;;8.52;1.40;;;;;;;;;;6260074;22;20046;-85
2022/04/05 04:04:27;;;;;;;4.03;1.20;;;;;;;;;;6258057;22;20045;-85
2022/04/05 04:06:56;;;;;;;7.60;1.10;;;;;;;;;;6257139;22;20042;-85
2022/04/05 04:09:23;;;;;;;6.25;0.77;;;;;;;;;;6246438;22;20335;-85
2022/04/05 04:11:52;;;;;;;9.02;1.30;;;;;;;;;;6220729;22;20039;-85
2022/04/05 04:14:19;;;;;;;9.18;1.00;;;;;;;;;;6220823;22;20031;-85
2022/04/05 04:16:49;;;;;;;10.35;1.10;;;;;;;;;;6256490;22;20427;-85
2022/04/05 04:19:17;;;;;;;3.55;1.00;;;;;;;;;;6256190;22;20020;-85
2022/04/05 04:21:45;;;;;;;4.18;0.80;;;;;;;;;;6220233;22;20051;-86
2022/04/05 04:24:14;;;;;;;3.65;0.75;;;;;;;;;;6256286;22;20028;-83
2022/04/05 04:26:45;;;;;;;9.07;1.20;;;;;;;;;;6255805;22;20064;-84
2022/04/05 04:29:14;;;;;;;7.55;1.40;;;;;;;;;;6273243;22;20041;-84
2022/04/05 04:31:41;;;;;;;8.35;1.02;;;;;;;;;;6273115;22;20019;-84
2022/04/05 04:34:09;;;;;;;10.32;1.13;;;;;;;;;;6283148;22;20054;-84
2022/04/05 04:36:37;;;;;;;8.85;1.05;;;;;;;;;;6282634;22;20035;-83
2022/04/05 04:39:07;;;;;;;5.70;0.82;;;;;;;;;;6283800;22;20308;-83
2022/04/05 04:41:35;;;;;;;10.80;1.30;;;;;;;;;;6256909;22;20039;-84
2022/04/05 04:44:04;;;;;;;6.63;1.20;;;;;;;;;;6284425;22;20098;-84
2022/04/05 04:46:31;;;;;;;7.75;1.10;;;;;;;;;;6277848;22;20019;-84
2022/04/05 04:48:59;;;;;;;4.07;0.93;;;;;;;;;;6306742;22;20016;-84
2022/04/05 04:51:27;;;;;;;7.18;1.35;;;;;;;;;;6314736;22;20000;-84
2022/04/05 04:53:55;;;;;;;11.07;1.40;;;;;;;;;;6312788;22;20330;-84
2022/04/05 04:56:23;;;;;;;6.20;1.20;;;;;;;;;;6303149;22;20070;-85
2022/04/05 04:58:51;;;;;;;6.40;1.17;;;;;;;;;;6291622;22;20015;-84
2022/04/05 05:01:19;;;;;;;7.57;1.30;;;;;;;;;;6290336;22;20026;-84
2022/04/05 05:03:47;;;;;;;7.80;1.08;;;;;;;;;;6284387;22;20030;-84
2022/04/05 05:06:15;;;;;;;8.55;1.33;;;;;;;;;;6283503;22;20023;-86
2022/04/05 05:08:44;;;;;;;5.70;0.93;;;;;;;;;;6256983;22;20019;-85
2022/04/05 05:11:11;;;;;;;7.43;1.13;;;;;;;;;;6283887;22;20019;-84
2022/04/05 05:13:39;;;;;;;9.18;1.23;;;;;;;;;;6275001;22;20023;-87
2022/04/05 05:16:06;;;;;;;10.48;1.50;;;;;;;;;;6221216;22;20022;-88
2022/04/05 05:18:35;;;;;;;5.60;1.45;;;;;;;;;;6247686;22;20093;-87
2022/04/05 05:21:02;;;;;;;6.18;0.88;;;;;;;;;;6284428;22;20016;-86
2022/04/05 05:23:31;;;;;;;13.50;1.33;;;;;;;;;;6283267;22;20046;-86
2022/04/05 05:25:58;;;;;;;5.70;0.80;;;;;;;;;;6274751;22;20350;-86
2022/04/05 05:28:27;;;;;;;8.27;1.05;;;;;;;;;;6284177;22;20020;-86
2022/04/05 05:30:55;;;;;;;16.88;1.70;;;;;;;;;;6284363;22;20020;-86
2022/04/05 05:33:22;;;;;;;7.57;1.35;;;;;;;;;;6246964;22;20031;-87
2022/04/05 05:35:50;;;;;;;5.15;0.85;;;;;;;;;;6283608;22;20102;-85
2022/04/05 05:38:19;;;;;;;5.60;1.60;;;;;;;;;;6283227;22;20039;-85
2022/04/05 05:40:46;;;;;;;4.88;1.17;;;;;;;;;;6257340;22;20026;-86
2022/04/05 05:43:14;;;;;;;6.63;1.30;;;;;;;;;;6283487;22;20043;-84
2022/04/05 05:45:43;;;;;;;4.75;1.10;;;;;;;;;;6283316;22;20011;-84
2022/04/05 05:48:10;;;;;;;6.82;1.10;;;;;;;;;;6283060;22;20043;-86
2022/04/05 05:50:38;;;;;;;9.52;1.10;;;;;;;;;;6285781;22;20042;-77
2022/04/05 05:53:07;;;;;;;10.90;1.63;;;;;;;;;;6269802;22;20030;-77
2022/04/05 05:55:35;;;;;;;5.25;1.00;;;;;;;;;;6270303;22;20103;-77
2022/04/05 05:58:03;;;;;;;6.30;1.33;;;;;;;;;;6281698;22;20016;-78
2022/04/05 06:00:31;;;;;;;8.88;1.08;;;;;;;;;;6279787;22;20062;-77
2022/04/05 06:03:03;;;;;;;9.30;1.42;;;;;;;;;;6281803;22;20019;-79
2022/04/05 06:05:31;;;;;;;6.95;1.05;;;;;;;;;;6281108;22;20020;-77
2022/04/05 06:07:59;;;;;;;9.27;1.60;;;;;;;;;;6254628;22;20354;-78
2022/04/05 06:10:27;;;;;;;8.88;1.23;;;;;;;;;;6226884;22;20020;-78
2022/04/05 06:12:59;;;;;;;3.85;1.38;;;;;;;;;;6243680;22;20023;-77
2022/04/05 06:15:28;;;;;;;2.72;0.95;;;;;;;;;;6280638;22;20403;-77
2022/04/05 06:17:59;;;;;;;8.80;1.05;;;;;;;;;;6219029;22;20439;-77
2022/04/05 06:20:28;;;;;;;4.78;1.02;;;;;;;;;;6279663;22;20016;-77
2022/04/05 06:22:57;;;;;;;8.52;0.93;;;;;;;;;;6243373;22;20392;-77
2022/04/05 06:25:29;;;;;;;10.40;1.77;;;;;;;;;;6252782;22;20034;-77
2022/04/05 06:27:58;;;;;;;4.45;1.00;;;;;;;;;;6279784;22;20085;-77
2022/04/05 06:30:25;;;;;;;7.18;1.42;;;;;;;;;;6277390;22;20035;-77
2022/04/05 06:33:10;;;;;;;4.95;0.95;;;;;;;;;;6273597;22;20015;-77
2022/04/05 06:35:41;;;;;;;7.93;1.25;;;;;;;;;;6279243;22;20069;-77
2022/04/05 06:38:09;;;;;;;8.55;1.17;;;;;;;;;;6278636;22;20019;-78
2022/04/05 06:40:37;;;;;;;9.70;1.30;;;;;;;;;;6275255;22;20791;-78
2022/04/05 06:43:05;;;;;;;2.17;0.98;;;;;;;;;;6275497;22;20035;-77
2022/04/05 06:45:34;;;;;;;8.32;1.30;;;;;;;;;;6277065;22;20012;-77
2022/04/05 06:48:01;;;;;;;8.93;1.38;;;;;;;;;;6275553;22;20031;-77
2022/04/05 06:50:29;;;;;;;11.48;1.40;;;;;;;;;;6275341;22;20085;-77
2022/04/05 06:52:59;;;;;;;9.80;1.40;;;;;;;;;;6276320;22;20035;-77
2022/04/05 06:55:27;;;;;;;8.68;1.33;;;;;;;;;;6277502;22;20015;-77
2022/04/05 06:57:55;;;;;;;5.78;1.15;;;;;;;;;;6277424;22;20016;-77
2022/04/05 07:00:25;;;;;;;11.82;1.30;;;;;;;;;;6276575;22;20054;-77
2022/04/05 07:02:53;;;;;;;6.32;1.00;;;;;;;;;;6277273;22;20019;-77
2022/04/05 07:05:21;;;;;;;5.47;0.95;;;;;;;;;;6278597;22;20537;-77
2022/04/05 07:07:49;;;;;;;10.32;2.28;;;;;;;;;;6278242;22;20043;-77
2022/04/05 07:10:19;;;;;;;5.60;1.67;;;;;;;;;;6277820;22;20020;-77
2022/04/05 07:12:47;;;;;;;10.93;1.25;;;;;;;;;;6276750;22;20023;-78
2022/04/05 07:15:15;;;;;;;4.90;1.05;;;;;;;;;;6266803;22;20059;-77
2022/04/05 07:17:43;;;;;;;7.13;0.80;;;;;;;;;;6276633;22;20485;-77
2022/04/05 07:20:31;;;;;;;7.53;1.00;;;;;;;;;;6240919;22;20023;-77
2022/04/05 07:22:58;;;;;;;4.03;1.08;;;;;;;;;;6278080;22;20019;-77
2022/04/05 07:25:26;;;;;;;7.10;1.25;;;;;;;;;;6276195;22;20057;-78
2022/04/05 07:27:54;;;;;;;7.70;1.05;;;;;;;;;;6277825;22;20020;-77
2022/04/05 07:30:24;;;;;;;4.57;1.23;;;;;;;;;;6278827;22;20015;-77
2022/04/05 07:32:53;;;;;;;7.82;1.60;;;;;;;;;;6278919;22;20022;-77
2022/04/05 07:35:21;;;;;;;7.80;1.02;;;;;;;;;;6279866;22;20391;-77
2022/04/05 07:37:49;;;;;;;5.13;1.08;;;;;;;;;;6249082;22;20020;-77
2022/04/05 07:40:16;;;;;;;13.25;1.60;;;;;;;;;;6279133;22;20067;-77
2022/04/05 07:42:46;;;;;;;8.23;1.20;;;;;;;;;;6279652;22;20089;-77
2022/04/05 07:45:15;;;;;;;7.72;1.75;;;;;;;;;;6280365;22;20291;-77
2022/04/05 07:47:44;;;;;;;4.13;1.00;;;;;;;;;;6250231;22;20015;-77
2022/04/05 07:50:11;;;;;;;5.75;1.02;;;;;;;;;;6278139;22;20030;-77
2022/04/05 07:52:39;;;;;;;4.97;1.00;;;;;;;;;;6276635;22;20073;-77
2022/04/05 07:55:08;;;;;;;8.55;1.27;;;;;;;;;;6268216;22;20027;-77
2022/04/05 07:57:40;;;;;;;5.07;0.70;;;;;;;;;;6280528;22;20011;-77
2022/04/05 08:00:10;;;;;;;7.35;1.10;;;;;;;;;;6284898;22;20020;-77
2022/04/05 08:02:41;;;;;;;5.82;0.95;;;;;;;;;;6256462;22;20019;-77
2022/04/05 08:05:13;;;;;;;6.05;0.93;;;;;;;;;;6279182;22;20438;-77
2022/04/05 08:07:41;;;;;;;6.60;1.00;;;;;;;;;;6276864;22;20047;-77
2022/04/05 08:10:09;;;;;;;9.05;1.17;;;;;;;;;;6252262;22;20023;-77
2022/04/05 08:12:42;;;;;;;6.28;0.98;;;;;;;;;;6278548;22;20026;-77
2022/04/05 08:15:13;;;;;;;5.00;1.50;;;;;;;;;;6277794;22;20030;-77
2022/04/05 08:17:41;;;;;;;2.92;0.80;;;;;;;;;;6278855;22;20019;-77
2022/04/05 08:20:09;;;;;;;6.80;1.15;;;;;;;;;;6279909;22;20391;-77
2022/04/05 08:22:37;;;;;;;6.53;1.05;;;;;;;;;;6278409;22;20105;-77
2022/04/05 08:25:10;;;;;;;10.20;1.95;;;;;;;;;;6278435;22;20026;-77
2022/04/05 08:27:39;;;;;;;6.20;1.10;;;;;;;;;;6252814;22;20015;-77
2022/04/05 08:30:15;;;;;;;5.13;1.42;;;;;;;;;;6280333;22;20026;-77
2022/04/05 08:32:45;;;;;;;4.15;1.00;;;;;;;;;;6253288;22;20458;-77
2022/04/05 08:35:15;;;;;;;8.23;1.15;;;;;;;;;;6279390;22;20011;-77
2022/04/05 08:37:44;;;;;;;8.02;1.40;;;;;;;;;;6278281;22;20011;-77
2022/04/05 08:40:16;;;;;;;5.20;1.30;;;;;;;;;;6268706;22;20536;-77
2022/04/05 08:42:46;;;;;;;12.02;1.42;;;;;;;;;;6250223;22;20020;-78
2022/04/05 08:45:14;;;;;;;4.80;0.98;;;;;;;;;;6279483;22;20024;-77
2022/04/05 08:47:50;;;;;;;7.05;1.23;;;;;;;;;;6253980;22;20469;-77
2022/04/05 08:50:19;;;;;;;4.10;1.25;;;;;;;;;;6240409;22;20023;-78
2022/04/05 08:52:48;;;;;;;5.32;1.20;;;;;;;;;;6277808;22;20012;-78
2022/04/05 08:55:16;;;;;;;3.42;0.85;;;;;;;;;;6268574;22;20462;-78
2022/04/05 08:57:43;;;;;;;1.73;0.50;;;;;;;;;;6278460;22;20022;-78
2022/04/05 09:00:14;;;;;;;3.25;0.95;;;;;;;;;;6253144;22;20023;-77
2022/04/05 09:02:54;;;;;;;5.85;0.75;;;;;;;;;;6279158;22;20447;-77
2022/04/05 09:05:37;;;;;;;5.07;0.68;;;;;;;;;;6276704;22;20118;-77
2022/04/05 09:08:11;;;;;;;5.85;1.05;;;;;;;;;;6278887;22;20065;-77
2022/04/05 09:10:40;;;;;;;3.17;0.73;;;;;;;;;;6268939;22;20039;-77
2022/04/05 09:13:10;;;;;;;5.32;0.80;;;;;;;;;;6278065;22;20110;-77
2022/04/05 09:15:37;;;;;;;2.58;0.73;;;;;;;;;;6279559;22;20148;-77
2022/04/05 09:18:05;;;;;;;5.60;0.70;;;;;;;;;;6252392;22;20016;-77
2022/04/05 09:20:45;;;;;;;1.25;0.38;;;;;;;;;;6252183;22;20376;-78
2022/04/05 09:23:27;;;;;;;2.85;0.70;;;;;;;;;;6280387;22;20029;-77
2022/04/05 09:26:04;;;;;;;6.07;0.90;;;;;;;;;;6277049;22;20019;-77
2022/04/05 09:28:34;;;;;;;3.10;0.90;;;;;;;;;;6287708;22;20447;-77
2022/04/05 09:31:04;;;;;;;5.15;1.10;;;;;;;;;;6278208;22;20038;-77
2022/04/05 09:33:33;;;;;;;5.45;1.05;;;;;;;;;;6269615;22;20054;-77
2022/04/05 09:36:07;;;;;;;5.30;1.15;;;;;;;;;;6279090;22;20019;-77
2022/04/05 09:38:36;;;;;;;2.67;1.42;;;;;;;;;;6278861;22;20019;-77
2022/04/05 09:41:21;;;;;;;7.05;1.00;;;;;;;;;;6241432;22;20759;-77
2022/04/05 09:43:51;;;;;;;3.70;0.70;;;;;;;;;;6268183;22;20019;-77
2022/04/05 09:46:19;;;;;;;2.22;0.70;;;;;;;;;;6278086;22;20023;-78
2022/04/05 09:48:47;;;;;;;4.85;0.70;;;;;;;;;;6252583;22;20026;-77
2022/04/05 09:51:17;;;;;;;4.25;1.08;;;;;;;;;;6279110;22;20459;-77
2022/04/05 09:53:50;;;;;;;3.65;0.85;;;;;;;;;;6226037;22;20023;-78
2022/04/05 09:56:25;;;;;;;6.93;1.08;;;;;;;;;;6278239;22;20030;-77
2022/04/05 09:58:55;;;;;;;6.78;1.10;;;;;;;;;;6252841;22;20069;-77
2022/04/05 10:01:26;;;;;;;5.97;1.15;;;;;;;;;;6276499;22;20445;-77
2022/04/05 10:03:58;;;;;;;2.38;0.80;;;;;;;;;;6277551;22;20023;-77
2022/04/05 10:06:25;;;;;;;5.32;0.70;;;;;;;;;;6278461;22;20026;-77
2022/04/05 10:08:55;;;;;;;4.00;0.90;;;;;;;;;;6279337;22;20015;-77
2022/04/05 10:11:28;;;;;;;8.68;1.02;;;;;;;;;;6277848;22;20020;-77
2022/04/05 10:13:56;;;;;;;4.18;0.88;;;;;;;;;;6251743;22;20327;-77
2022/04/05 10:16:29;;;;;;;3.47;1.02;;;;;;;;;;6249738;22;20106;-77
2022/04/05 10:19:07;;;;;;;7.22;1.30;;;;;;;;;;6269197;22;20023;-77
2022/04/05 10:21:36;;;;;;;5.63;1.17;;;;;;;;;;6277945;22;20024;-77
2022/04/05 10:24:05;;;;;;;13.10;1.40;;;;;;;;;;6279344;22;20030;-77
2022/04/05 10:26:38;;;;;;;6.10;1.30;;;;;;;;;;6277629;22;20019;-78
2022/04/05 10:29:10;;;;;;;6.68;1.40;;;;;;;;;;6283454;22;20345;-77
2022/04/05 10:31:49;;;;;;;5.82;1.85;;;;;;;;;;6283617;22;20393;-77
2022/04/05 10:34:28;;;;;;;4.68;1.30;;;;;;;;;;6280152;22;20019;-77
2022/04/05 10:37:07;;;;;;;2.72;0.73;;;;;;;;;;6277141;22;20016;-77
2022/04/05 10:39:36;;;;;;;2.90;1.05;;;;;;;;;;6280775;22;20534;-77
2022/04/05 10:42:11;;;;;;;4.63;1.10;;;;;;;;;;6279169;22;20030;-76
2022/04/05 10:44:46;;;;;;;5.25;1.17;;;;;;;;;;6270892;22;20047;-77
2022/04/05 10:47:14;;;;;;;4.50;1.17;;;;;;;;;;6279850;22;20011;-77
2022/04/05 10:50:17;;;;;;;5.70;0.90;;;;;;;;;;6281057;22;20046;-77
2022/04/05 10:53:08;;;;;;;5.78;1.50;;;;;;;;;;6280093;22;20019;-77
2022/04/05 10:56:03;;;;;;;7.13;0.90;;;;;;;;;;6280570;22;20027;-77
2022/04/05 10:58:32;;;;;;;7.00;1.20;;;;;;;;;;6278337;22;20022;-77
2022/04/05 11:01:20;;;;;;;4.53;1.10;;;;;;;;;;6279786;22;20023;-77
2022/04/05 11:04:16;;;;;;;5.07;0.90;;;;;;;;;;6280189;22;20561;-77
2022/04/05 11:07:01;;;;;;;3.83;1.08;;;;;;;;;;6280085;22;20130;-77
2022/04/05 11:09:44;;;;;;;1.85;0.77;;;;;;;;;;6271317;22;20046;-77
2022/04/05 11:12:16;;;;;;;2.65;0.80;;;;;;;;;;6253628;22;20071;-78
2022/04/05 11:14:51;;;;;;;8.63;1.30;;;;;;;;;;6281486;22;20073;-77
2022/04/05 11:17:21;;;;;;;4.18;1.40;;;;;;;;;;6280528;22;20339;-77
2022/04/05 11:19:52;;;;;;;3.67;0.80;;;;;;;;;;6282324;22;20077;-77
2022/04/05 11:22:22;;;;;;;3.80;1.08;;;;;;;;;;6253413;22;20015;-77
2022/04/05 11:25:04;;;;;;;4.70;1.40;;;;;;;;;;6244268;22;20098;-77
2022/04/05 11:27:32;;;;;;;3.25;0.95;;;;;;;;;;6280422;22;20023;-77
2022/04/05 11:30:22;;;;;;;1.75;0.77;;;;;;;;;;6281765;22;20034;-77
2022/04/05 11:33:06;;;;;;;7.75;1.33;;;;;;;;;;6243561;22;20030;-77
2022/04/05 11:35:46;;;;;;;5.13;0.57;;;;;;;;;;6282234;22;20035;-77
2022/04/05 11:38:19;;;;;;;5.13;0.80;;;;;;;;;;6243869;22;20433;-78
2022/04/05 11:40:54;;;;;;;3.75;0.65;;;;;;;;;;6281911;22;20501;-77
2022/04/05 11:43:29;;;;;;;2.95;0.80;;;;;;;;;;6242605;22;20012;-77
2022/04/05 11:46:06;;;;;;;2.53;0.60;;;;;;;;;;6254449;22;20019;-77
2022/04/05 11:48:33;;;;;;;5.68;0.73;;;;;;;;;;6281118;22;20016;-76
2022/04/05 11:51:05;;;;;;;2.72;0.90;;;;;;;;;;6243918;22;20027;-77
2022/04/05 11:53:33;;;;;;;2.08;0.70;;;;;;;;;;6282415;22;20463;-77
2022/04/05 11:56:20;;;;;;;4.57;0.90;;;;;;;;;;6281014;22;20023;-77
2022/04/05 11:58:51;;;;;;;4.63;0.80;;;;;;;;;;6281103;22;20007;-77
2022/04/05 12:01:24;;;;;;;4.95;1.13;;;;;;;;;;6278264;22;20016;-77
2022/04/05 12:03:59;;;;;;;3.17;0.95;;;;;;;;;;6253969;22;20024;-77
2022/04/05 12:06:41;;;;;;;4.25;0.80;;;;;;;;;;6280421;22;20378;-77
2022/04/05 12:09:11;;;;;;;4.95;1.20;;;;;;;;;;6270839;22;20015;-77
2022/04/05 12:11:41;;;;;;;3.45;0.63;;;;;;;;;;6280482;22;20024;-77
2022/04/05 12:14:14;;;;;;;2.47;0.70;;;;;;;;;;6280830;22;20599;-77
2022/04/05 12:16:46;;;;;;;2.53;0.70;;;;;;;;;;6279391;22;20423;-77
2022/04/05 12:19:25;;;;;;;1.88;1.15;;;;;;;;;;6280922;22;20038;-77
2022/04/05 12:21:55;;;;;;;2.28;1.00;;;;;;;;;;6278381;22;20019;-78
2022/04/05 12:24:25;;;;;;;6.80;0.85;;;;;;;;;;6254739;22;20020;-77
2022/04/05 12:26:55;;;;;;;2.42;0.90;;;;;;;;;;6279032;22;20512;-77
2022/04/05 12:29:23;;;;;;;6.82;1.15;;;;;;;;;;6281316;22;20023;-77
2022/04/05 12:31:50;;;;;;;4.70;1.00;;;;;;;;;;6279558;22;20024;-77
2022/04/05 12:34:18;;;;;;;3.80;0.73;;;;;;;;;;6270689;22;20023;-77
2022/04/05 12:36:46;;;;;;;2.40;1.00;;;;;;;;;;6280218;22;20106;-77
2022/04/05 12:39:25;;;;;;;5.47;1.00;;;;;;;;;;6280738;22;20776;-77
2022/04/05 12:42:06;;;;;;;3.03;0.95;;;;;;;;;;6279066;22;20020;-77
2022/04/05 12:44:39;;;;;;;3.17;1.13;;;;;;;;;;6254192;22;20854;-78
2022/04/05 12:47:12;;;;;;;3.92;1.10;;;;;;;;;;6278841;22;20031;-77
2022/04/05 12:49:46;;;;;;;2.80;1.00;;;;;;;;;;6254114;22;20389;-77
2022/04/05 12:52:16;;;;;;;4.05;0.95;;;;;;;;;;6280408;22;20350;-77
2022/04/05 12:54:53;;;;;;;4.07;1.00;;;;;;;;;;6242590;22;20020;-78
2022/04/05 12:57:24;;;;;;;5.22;1.20;;;;;;;;;;6279598;22;20023;-78
2022/04/05 12:59:54;;;;;;;2.72;1.00;;;;;;;;;;6281219;22;20019;-78
2022/04/05 13:02:26;;;;;;;2.85;0.95;;;;;;;;;;6278646;22;20027;-79
2022/04/05 13:08:27;;;;;;;2.67;0.95;;;;;;;;;;6267543;22;20030;-79
2022/04/05 13:10:54;;;;;;;4.90;0.90;;;;;;;;;;6268110;22;20107;-78
2022/04/05 13:13:39;;;;;;;3.63;1.10;;;;;;;;;;6279381;22;20023;-78
2022/04/05 13:16:09;;;;;;;2.47;1.00;;;;;;;;;;6267427;22;20028;-78
2022/04/05 13:18:41;;;;;;;4.00;1.08;;;;;;;;;;6276558;22;20043;-77
2022/04/05 13:21:12;;;;;;;3.20;1.00;;;;;;;;;;6277846;22;20023;-77
2022/04/05 13:23:41;;;;;;;2.88;0.93;;;;;;;;;;6251323;22;20119;-77
2022/04/05 13:26:23;;;;;;;3.13;1.20;;;;;;;;;;6279143;22;20023;-77
2022/04/05 13:29:17;;;;;;;4.63;1.30;;;;;;;;;;6279514;22;20346;-77
2022/04/05 13:31:45;;;;;;;2.50;0.93;;;;;;;;;;6250566;22;20094;-77
2022/04/05 13:34:17;;;;;;;5.57;0.70;;;;;;;;;;6250868;22;20336;-77
2022/04/05 13:36:48;;;;;;;4.60;1.38;;;;;;;;;;6266865;22;20414;-77
2022/04/05 13:39:16;;;;;;;1.70;0.77;;;;;;;;;;6268181;22;20094;-77
2022/04/05 13:41:44;;;;;;;6.10;1.08;;;;;;;;;;6285385;22;20023;-77
2022/04/05 13:44:13;;;;;;;3.60;0.90;;;;;;;;;;6287199;22;20021;-78
2022/04/05 13:46:40;;;;;;;6.18;1.27;;;;;;;;;;6279382;22;20088;-77
2022/04/05 13:49:10;;;;;;;3.30;1.50;;;;;;;;;;6276996;22;20090;-76
2022/04/05 13:51:38;;;;;;;7.18;1.00;;;;;;;;;;6250122;22;20099;-77
2022/04/05 13:54:26;;;;;;;2.03;1.00;;;;;;;;;;6250870;22;20022;-78
2022/04/05 13:56:54;;;;;;;4.80;1.10;;;;;;;;;;6276214;22;20094;-77
2022/04/05 13:59:22;;;;;;;5.40;1.20;;;;;;;;;;6279447;22;20016;-78
2022/04/05 14:01:51;;;;;;;4.13;0.95;;;;;;;;;;6276393;22;20050;-78
2022/04/05 14:04:18;;;;;;;5.47;1.48;;;;;;;;;;6267187;22;20359;-77
2022/04/05 14:06:46;;;;;;;5.10;1.15;;;;;;;;;;6277962;22;20024;-77
2022/04/05 14:09:14;;;;;;;1.70;0.90;;;;;;;;;;6251010;22;20011;-77
2022/04/05 14:11:43;;;;;;;2.33;1.10;;;;;;;;;;6277500;22;20892;-77
2022/04/05 14:14:11;;;;;;;3.88;1.10;;;;;;;;;;6277382;22;20023;-77
2022/04/05 14:16:38;;;;;;;3.70;1.08;;;;;;;;;;6276684;22;20024;-77
2022/04/05 14:19:06;;;;;;;3.60;1.02;;;;;;;;;;6276307;22;20018;-77
2022/04/05 14:21:34;;;;;;;4.45;1.27;;;;;;;;;;6275238;22;20027;-77
2022/04/05 14:24:04;;;;;;;2.55;1.00;;;;;;;;;;6278788;22;20489;-77
2022/04/05 14:26:33;;;;;;;5.47;1.23;;;;;;;;;;6277395;22;20016;-78
2022/04/05 14:29:01;;;;;;;2.30;0.77;;;;;;;;;;6217189;22;20378;-78
2022/04/05 14:31:29;;;;;;;3.10;1.13;;;;;;;;;;6276904;22;20024;-77
2022/04/05 14:33:57;;;;;;;2.78;1.10;;;;;;;;;;6267465;22;20028;-77
2022/04/05 14:36:24;;;;;;;3.92;1.10;;;;;;;;;;6276541;22;20732;-77
2022/04/05 14:38:59;;;;;;;3.53;1.40;;;;;;;;;;6276769;22;20015;-77
2022/04/05 14:41:26;;;;;;;2.85;0.80;;;;;;;;;;6226996;22;20066;-77
2022/04/05 14:43:59;;;;;;;4.03;1.00;;;;;;;;;;6280648;22;20023;-77
2022/04/05 14:46:29;;;;;;;3.75;1.20;;;;;;;;;;6279788;22;20019;-77
2022/04/05 14:48:59;;;;;;;3.53;1.00;;;;;;;;;;6244843;22;20042;-78
2022/04/05 14:51:28;;;;;;;2.05;1.20;;;;;;;;;;6283038;22;20020;-77
2022/04/05 14:53:59;;;;;;;3.00;1.13;;;;;;;;;;6283711;22;20023;-79
2022/04/05 14:56:32;;;;;;;4.88;0.90;;;;;;;;;;6286238;22;20012;-78
2022/04/05 14:59:18;;;;;;;2.17;1.17;;;;;;;;;;6282856;22;20029;-78
2022/04/05 15:01:48;;;;;;;3.25;1.23;;;;;;;;;;6281919;22;20438;-77
2022/04/05 15:04:17;;;;;;;3.75;1.00;;;;;;;;;;6278772;22;20023;-77